sensor_id;sensor_type;location;lat;lon;timestamp;P1;durP1;ratioP1;P2;durP2;ratioP2
59960;SDS011;55902;-37.980;-63.602;2024-03-02T00:00:07;10.25;;;2.03;;
59960;SDS011;55902;-37.980;-63.602;2024-03-02T00:02:45;5.18;;;1.70;;
59960;SDS011;55902;-37.980;-63.602;2024-03-02T00:05:13;3.70;;;1.60;;
59960;SDS011;55902;-37.980;-63.602;2024-03-02T00:07:42;5.25;;;1.70;;
59960;SDS011;55902;-37.980;-63.602;2024-03-02T00:10:11;6.95;;;1.70;;
59960;SDS011;55902;-37.980;-63.602;2024-03-02T00:12:42;4.15;;;1.65;;
59960;SDS011;55902;-37.980;-63.602;2024-03-02T00:17:53;3.92;;;1.67;;
59960;SDS011;55902;-37.980;-63.602;2024-03-02T00:20:21;3.95;;;1.92;;
59960;SDS011;55902;-37.980;-63.602;2024-03-02T00:22:51;4.72;;;1.70;;
59960;SDS011;55902;-37.980;-63.602;2024-03-02T00:25:35;5.78;;;1.70;;
59960;SDS011;55902;-37.980;-63.602;2024-03-02T00:28:48;8.27;;;1.65;;
59960;SDS011;55902;-37.980;-63.602;2024-03-02T00:31:07;4.53;;;1.63;;
59960;SDS011;55902;-37.980;-63.602;2024-03-02T00:33:47;7.72;;;1.70;;
59960;SDS011;55902;-37.980;-63.602;2024-03-02T00:36:15;2.63;;;1.40;;
59960;SDS011;55902;-37.980;-63.602;2024-03-02T00:38:54;4.63;;;1.60;;
59960;SDS011;55902;-37.980;-63.602;2024-03-02T00:46:25;7.07;;;2.05;;
59960;SDS011;55902;-37.980;-63.602;2024-03-02T00:48:59;5.20;;;1.70;;
59960;SDS011;55902;-37.980;-63.602;2024-03-02T00:51:32;4.28;;;1.85;;
59960;SDS011;55902;-37.980;-63.602;2024-03-02T00:54:04;4.10;;;1.80;;
59960;SDS011;55902;-37.980;-63.602;2024-03-02T00:56:33;5.53;;;1.98;;
59960;SDS011;55902;-37.980;-63.602;2024-03-02T00:59:01;4.85;;;2.10;;
59960;SDS011;55902;-37.980;-63.602;2024-03-02T01:01:28;6.38;;;2.10;;
59960;SDS011;55902;-37.980;-63.602;2024-03-02T01:03:55;3.97;;;1.98;;
59960;SDS011;55902;-37.980;-63.602;2024-03-02T01:06:21;7.75;;;1.75;;
59960;SDS011;55902;-37.980;-63.602;2024-03-02T01:08:49;5.45;;;1.70;;
59960;SDS011;55902;-37.980;-63.602;2024-03-02T01:11:17;5.93;;;1.50;;
59960;SDS011;55902;-37.980;-63.602;2024-03-02T01:13:45;4.85;;;1.85;;
59960;SDS011;55902;-37.980;-63.602;2024-03-02T01:16:12;6.55;;;1.80;;
59960;SDS011;55902;-37.980;-63.602;2024-03-02T01:18:39;5.38;;;1.95;;
59960;SDS011;55902;-37.980;-63.602;2024-03-02T01:21:06;3.70;;;2.00;;
59960;SDS011;55902;-37.980;-63.602;2024-03-02T01:23:33;5.85;;;2.00;;
59960;SDS011;55902;-37.980;-63.602;2024-03-02T01:26:00;8.27;;;2.30;;
59960;SDS011;55902;-37.980;-63.602;2024-03-02T01:28:27;4.97;;;2.05;;
59960;SDS011;55902;-37.980;-63.602;2024-03-02T01:30:54;4.70;;;1.83;;
59960;SDS011;55902;-37.980;-63.602;2024-03-02T01:33:24;4.95;;;1.90;;
59960;SDS011;55902;-37.980;-63.602;2024-03-02T01:35:51;3.55;;;1.80;;
59960;SDS011;55902;-37.980;-63.602;2024-03-02T01:38:18;5.32;;;2.00;;
59960;SDS011;55902;-37.980;-63.602;2024-03-02T01:40:46;4.45;;;1.83;;
59960;SDS011;55902;-37.980;-63.602;2024-03-02T01:43:15;4.28;;;1.80;;
59960;SDS011;55902;-37.980;-63.602;2024-03-02T01:45:42;4.07;;;1.95;;
59960;SDS011;55902;-37.980;-63.602;2024-03-02T01:48:09;5.05;;;1.95;;
59960;SDS011;55902;-37.980;-63.602;2024-03-02T01:50:36;6.50;;;2.40;;
59960;SDS011;55902;-37.980;-63.602;2024-03-02T01:53:03;5.40;;;2.60;;
59960;SDS011;55902;-37.980;-63.602;2024-03-02T01:55:30;6.72;;;2.50;;
59960;SDS011;55902;-37.980;-63.602;2024-03-02T01:57:58;8.68;;;2.78;;
59960;SDS011;55902;-37.980;-63.602;2024-03-02T02:00:25;6.00;;;2.50;;
59960;SDS011;55902;-37.980;-63.602;2024-03-02T02:02:52;9.68;;;2.55;;
59960;SDS011;55902;-37.980;-63.602;2024-03-02T02:05:20;8.82;;;2.38;;
59960;SDS011;55902;-37.980;-63.602;2024-03-02T02:07:47;5.63;;;2.20;;
59960;SDS011;55902;-37.980;-63.602;2024-03-02T02:10:14;5.57;;;1.85;;
59960;SDS011;55902;-37.980;-63.602;2024-03-02T02:12:41;6.82;;;2.00;;
59960;SDS011;55902;-37.980;-63.602;2024-03-02T02:17:55;4.95;;;1.80;;
59960;SDS011;55902;-37.980;-63.602;2024-03-02T02:20:22;4.05;;;2.00;;
59960;SDS011;55902;-37.980;-63.602;2024-03-02T02:23:00;2.35;;;1.92;;
59960;SDS011;55902;-37.980;-63.602;2024-03-02T02:25:35;6.13;;;1.98;;
59960;SDS011;55902;-37.980;-63.602;2024-03-02T02:28:02;4.82;;;2.20;;
59960;SDS011;55902;-37.980;-63.602;2024-03-02T02:30:29;3.95;;;2.22;;
59960;SDS011;55902;-37.980;-63.602;2024-03-02T02:32:57;6.22;;;2.42;;
59960;SDS011;55902;-37.980;-63.602;2024-03-02T02:35:25;5.13;;;2.08;;
59960;SDS011;55902;-37.980;-63.602;2024-03-02T02:37:55;4.63;;;1.90;;
59960;SDS011;55902;-37.980;-63.602;2024-03-02T02:40:23;4.95;;;1.90;;
59960;SDS011;55902;-37.980;-63.602;2024-03-02T02:42:50;3.47;;;2.00;;
59960;SDS011;55902;-37.980;-63.602;2024-03-02T02:45:17;6.72;;;1.95;;
59960;SDS011;55902;-37.980;-63.602;2024-03-02T02:47:59;7.88;;;2.20;;
59960;SDS011;55902;-37.980;-63.602;2024-03-02T02:50:28;5.00;;;1.92;;
59960;SDS011;55902;-37.980;-63.602;2024-03-02T02:52:54;4.28;;;2.03;;
59960;SDS011;55902;-37.980;-63.602;2024-03-02T02:55:21;4.50;;;1.98;;
59960;SDS011;55902;-37.980;-63.602;2024-03-02T02:57:48;6.85;;;2.00;;
59960;SDS011;55902;-37.980;-63.602;2024-03-02T03:00:15;4.68;;;2.30;;
59960;SDS011;55902;-37.980;-63.602;2024-03-02T03:02:47;7.32;;;2.03;;
59960;SDS011;55902;-37.980;-63.602;2024-03-02T03:05:15;6.32;;;2.00;;
59960;SDS011;55902;-37.980;-63.602;2024-03-02T03:07:42;8.93;;;2.10;;
59960;SDS011;55902;-37.980;-63.602;2024-03-02T03:10:10;7.70;;;2.00;;
59960;SDS011;55902;-37.980;-63.602;2024-03-02T03:12:37;4.88;;;1.92;;
59960;SDS011;55902;-37.980;-63.602;2024-03-02T03:15:06;6.80;;;2.00;;
59960;SDS011;55902;-37.980;-63.602;2024-03-02T03:17:34;7.43;;;2.20;;
59960;SDS011;55902;-37.980;-63.602;2024-03-02T03:20:01;5.53;;;2.00;;
59960;SDS011;55902;-37.980;-63.602;2024-03-02T03:22:30;5.72;;;2.00;;
59960;SDS011;55902;-37.980;-63.602;2024-03-02T03:24:57;5.35;;;2.00;;
59960;SDS011;55902;-37.980;-63.602;2024-03-02T03:27:25;5.50;;;2.00;;
59960;SDS011;55902;-37.980;-63.602;2024-03-02T03:29:52;5.72;;;1.92;;
59960;SDS011;55902;-37.980;-63.602;2024-03-02T03:32:19;7.93;;;2.10;;
59960;SDS011;55902;-37.980;-63.602;2024-03-02T03:34:47;3.22;;;2.00;;
59960;SDS011;55902;-37.980;-63.602;2024-03-02T03:37:14;5.88;;;2.15;;
59960;SDS011;55902;-37.980;-63.602;2024-03-02T03:39:41;4.15;;;2.05;;
59960;SDS011;55902;-37.980;-63.602;2024-03-02T03:42:08;6.10;;;2.25;;
59960;SDS011;55902;-37.980;-63.602;2024-03-02T03:44:35;8.25;;;2.20;;
59960;SDS011;55902;-37.980;-63.602;2024-03-02T03:47:02;4.68;;;2.20;;
59960;SDS011;55902;-37.980;-63.602;2024-03-02T03:49:31;6.05;;;2.20;;
59960;SDS011;55902;-37.980;-63.602;2024-03-02T03:52:05;5.45;;;2.30;;
59960;SDS011;55902;-37.980;-63.602;2024-03-02T03:54:32;3.72;;;2.20;;
59960;SDS011;55902;-37.980;-63.602;2024-03-02T03:56:59;4.93;;;2.15;;
59960;SDS011;55902;-37.980;-63.602;2024-03-02T03:59:26;3.20;;;1.90;;
59960;SDS011;55902;-37.980;-63.602;2024-03-02T04:01:53;3.03;;;2.15;;
59960;SDS011;55902;-37.980;-63.602;2024-03-02T04:04:19;3.42;;;2.08;;
59960;SDS011;55902;-37.980;-63.602;2024-03-02T04:06:46;4.47;;;2.10;;
59960;SDS011;55902;-37.980;-63.602;2024-03-02T04:09:13;6.35;;;2.17;;
59960;SDS011;55902;-37.980;-63.602;2024-03-02T04:11:40;3.67;;;2.30;;
59960;SDS011;55902;-37.980;-63.602;2024-03-02T04:14:07;5.30;;;2.25;;
59960;SDS011;55902;-37.980;-63.602;2024-03-02T04:16:35;4.72;;;2.33;;
59960;SDS011;55902;-37.980;-63.602;2024-03-02T04:19:02;5.60;;;2.58;;
59960;SDS011;55902;-37.980;-63.602;2024-03-02T04:21:29;4.13;;;2.28;;
59960;SDS011;55902;-37.980;-63.602;2024-03-02T04:23:56;4.63;;;2.42;;
59960;SDS011;55902;-37.980;-63.602;2024-03-02T04:26:24;4.60;;;2.10;;
59960;SDS011;55902;-37.980;-63.602;2024-03-02T04:28:52;4.68;;;2.17;;
59960;SDS011;55902;-37.980;-63.602;2024-03-02T04:31:19;6.32;;;2.40;;
59960;SDS011;55902;-37.980;-63.602;2024-03-02T04:33:46;4.60;;;2.55;;
59960;SDS011;55902;-37.980;-63.602;2024-03-02T04:36:13;5.50;;;2.40;;
59960;SDS011;55902;-37.980;-63.602;2024-03-02T04:38:40;6.13;;;2.60;;
59960;SDS011;55902;-37.980;-63.602;2024-03-02T04:41:07;3.33;;;2.50;;
59960;SDS011;55902;-37.980;-63.602;2024-03-02T04:43:34;5.95;;;2.28;;
59960;SDS011;55902;-37.980;-63.602;2024-03-02T04:46:01;4.55;;;2.50;;
59960;SDS011;55902;-37.980;-63.602;2024-03-02T04:48:29;7.13;;;2.47;;
59960;SDS011;55902;-37.980;-63.602;2024-03-02T04:50:56;3.58;;;2.45;;
59960;SDS011;55902;-37.980;-63.602;2024-03-02T04:53:23;5.25;;;3.10;;
59960;SDS011;55902;-37.980;-63.602;2024-03-02T04:55:50;5.53;;;2.33;;
59960;SDS011;55902;-37.980;-63.602;2024-03-02T04:58:55;5.60;;;2.60;;
59960;SDS011;55902;-37.980;-63.602;2024-03-02T05:01:22;5.70;;;2.85;;
59960;SDS011;55902;-37.980;-63.602;2024-03-02T05:03:49;5.50;;;2.53;;
59960;SDS011;55902;-37.980;-63.602;2024-03-02T05:06:16;3.80;;;2.60;;
59960;SDS011;55902;-37.980;-63.602;2024-03-02T05:08:43;4.47;;;2.50;;
59960;SDS011;55902;-37.980;-63.602;2024-03-02T05:11:10;4.13;;;2.40;;
59960;SDS011;55902;-37.980;-63.602;2024-03-02T05:13:55;3.95;;;2.80;;
59960;SDS011;55902;-37.980;-63.602;2024-03-02T05:16:22;6.15;;;3.00;;
59960;SDS011;55902;-37.980;-63.602;2024-03-02T05:18:49;3.45;;;2.83;;
59960;SDS011;55902;-37.980;-63.602;2024-03-02T05:21:16;5.88;;;2.70;;
59960;SDS011;55902;-37.980;-63.602;2024-03-02T05:23:43;3.13;;;2.70;;
59960;SDS011;55902;-37.980;-63.602;2024-03-02T05:26:09;7.85;;;3.28;;
59960;SDS011;55902;-37.980;-63.602;2024-03-02T05:28:39;3.85;;;2.53;;
59960;SDS011;55902;-37.980;-63.602;2024-03-02T05:31:06;3.45;;;2.60;;
59960;SDS011;55902;-37.980;-63.602;2024-03-02T05:33:37;4.47;;;2.80;;
59960;SDS011;55902;-37.980;-63.602;2024-03-02T05:36:04;5.50;;;3.20;;
59960;SDS011;55902;-37.980;-63.602;2024-03-02T05:38:32;5.30;;;2.65;;
59960;SDS011;55902;-37.980;-63.602;2024-03-02T05:41:02;7.00;;;2.88;;
59960;SDS011;55902;-37.980;-63.602;2024-03-02T05:43:29;5.40;;;2.92;;
59960;SDS011;55902;-37.980;-63.602;2024-03-02T05:45:59;4.55;;;3.03;;
59960;SDS011;55902;-37.980;-63.602;2024-03-02T05:48:26;5.00;;;2.85;;
59960;SDS011;55902;-37.980;-63.602;2024-03-02T05:50:53;6.30;;;3.00;;
59960;SDS011;55902;-37.980;-63.602;2024-03-02T05:53:20;3.83;;;2.92;;
59960;SDS011;55902;-37.980;-63.602;2024-03-02T05:55:47;4.85;;;2.85;;
59960;SDS011;55902;-37.980;-63.602;2024-03-02T05:58:18;7.40;;;3.42;;
59960;SDS011;55902;-37.980;-63.602;2024-03-02T06:00:51;4.80;;;3.50;;
59960;SDS011;55902;-37.980;-63.602;2024-03-02T06:03:19;4.65;;;3.05;;
59960;SDS011;55902;-37.980;-63.602;2024-03-02T06:05:46;6.60;;;3.80;;
59960;SDS011;55902;-37.980;-63.602;2024-03-02T06:08:14;8.70;;;3.60;;
59960;SDS011;55902;-37.980;-63.602;2024-03-02T06:10:43;5.15;;;3.50;;
59960;SDS011;55902;-37.980;-63.602;2024-03-02T06:13:10;4.13;;;3.15;;
59960;SDS011;55902;-37.980;-63.602;2024-03-02T06:15:36;3.63;;;3.30;;
59960;SDS011;55902;-37.980;-63.602;2024-03-02T06:18:03;4.32;;;3.40;;
59960;SDS011;55902;-37.980;-63.602;2024-03-02T06:20:33;5.40;;;3.80;;
59960;SDS011;55902;-37.980;-63.602;2024-03-02T06:23:00;6.22;;;3.78;;
59960;SDS011;55902;-37.980;-63.602;2024-03-02T06:25:27;5.72;;;4.07;;
59960;SDS011;55902;-37.980;-63.602;2024-03-02T06:27:54;5.07;;;3.80;;
59960;SDS011;55902;-37.980;-63.602;2024-03-02T06:30:21;6.10;;;4.05;;
59960;SDS011;55902;-37.980;-63.602;2024-03-02T06:32:48;4.40;;;3.95;;
59960;SDS011;55902;-37.980;-63.602;2024-03-02T06:35:15;7.50;;;4.07;;
59960;SDS011;55902;-37.980;-63.602;2024-03-02T06:37:42;4.95;;;4.22;;
59960;SDS011;55902;-37.980;-63.602;2024-03-02T06:40:09;4.45;;;3.92;;
59960;SDS011;55902;-37.980;-63.602;2024-03-02T06:42:36;6.40;;;4.50;;
59960;SDS011;55902;-37.980;-63.602;2024-03-02T06:45:03;5.47;;;4.38;;
59960;SDS011;55902;-37.980;-63.602;2024-03-02T06:47:30;6.80;;;4.90;;
59960;SDS011;55902;-37.980;-63.602;2024-03-02T06:49:57;4.88;;;4.03;;
59960;SDS011;55902;-37.980;-63.602;2024-03-02T06:52:24;6.68;;;4.65;;
59960;SDS011;55902;-37.980;-63.602;2024-03-02T06:54:51;4.43;;;4.03;;
59960;SDS011;55902;-37.980;-63.602;2024-03-02T06:57:18;6.03;;;4.32;;
59960;SDS011;55902;-37.980;-63.602;2024-03-02T06:59:46;5.60;;;4.00;;
59960;SDS011;55902;-37.980;-63.602;2024-03-02T07:02:15;7.13;;;4.50;;
59960;SDS011;55902;-37.980;-63.602;2024-03-02T07:04:42;5.70;;;4.00;;
59960;SDS011;55902;-37.980;-63.602;2024-03-02T07:07:10;5.80;;;4.00;;
59960;SDS011;55902;-37.980;-63.602;2024-03-02T07:09:37;4.63;;;3.60;;
59960;SDS011;55902;-37.980;-63.602;2024-03-02T07:12:05;3.88;;;3.50;;
59960;SDS011;55902;-37.980;-63.602;2024-03-02T07:14:32;3.60;;;3.20;;
59960;SDS011;55902;-37.980;-63.602;2024-03-02T07:17:17;3.78;;;3.40;;
59960;SDS011;55902;-37.980;-63.602;2024-03-02T07:19:44;3.45;;;2.75;;
59960;SDS011;55902;-37.980;-63.602;2024-03-02T07:22:11;2.83;;;2.53;;
59960;SDS011;55902;-37.980;-63.602;2024-03-02T07:24:41;3.67;;;2.42;;
59960;SDS011;55902;-37.980;-63.602;2024-03-02T07:27:12;3.25;;;2.40;;
59960;SDS011;55902;-37.980;-63.602;2024-03-02T07:29:40;4.90;;;2.33;;
59960;SDS011;55902;-37.980;-63.602;2024-03-02T07:32:07;4.03;;;2.08;;
59960;SDS011;55902;-37.980;-63.602;2024-03-02T07:34:35;2.92;;;1.95;;
59960;SDS011;55902;-37.980;-63.602;2024-03-02T07:37:03;2.45;;;1.92;;
59960;SDS011;55902;-37.980;-63.602;2024-03-02T07:39:30;3.10;;;1.80;;
59960;SDS011;55902;-37.980;-63.602;2024-03-02T07:41:57;2.22;;;1.85;;
59960;SDS011;55902;-37.980;-63.602;2024-03-02T07:44:25;3.13;;;1.70;;
59960;SDS011;55902;-37.980;-63.602;2024-03-02T07:46:55;2.72;;;1.65;;
59960;SDS011;55902;-37.980;-63.602;2024-03-02T07:49:22;3.05;;;1.40;;
59960;SDS011;55902;-37.980;-63.602;2024-03-02T07:51:49;2.50;;;1.52;;
59960;SDS011;55902;-37.980;-63.602;2024-03-02T07:54:16;3.40;;;1.45;;
59960;SDS011;55902;-37.980;-63.602;2024-03-02T07:56:43;2.22;;;1.20;;
59960;SDS011;55902;-37.980;-63.602;2024-03-02T07:59:10;2.00;;;1.30;;
59960;SDS011;55902;-37.980;-63.602;2024-03-02T08:01:37;1.90;;;1.33;;
59960;SDS011;55902;-37.980;-63.602;2024-03-02T08:04:04;2.90;;;1.33;;
59960;SDS011;55902;-37.980;-63.602;2024-03-02T08:06:32;3.72;;;1.50;;
59960;SDS011;55902;-37.980;-63.602;2024-03-02T08:08:59;2.70;;;1.40;;
59960;SDS011;55902;-37.980;-63.602;2024-03-02T08:11:27;2.30;;;1.25;;
59960;SDS011;55902;-37.980;-63.602;2024-03-02T08:13:55;2.65;;;1.15;;
59960;SDS011;55902;-37.980;-63.602;2024-03-02T08:16:22;1.70;;;1.20;;
59960;SDS011;55902;-37.980;-63.602;2024-03-02T08:18:51;1.77;;;1.20;;
59960;SDS011;55902;-37.980;-63.602;2024-03-02T08:21:18;2.28;;;1.40;;
59960;SDS011;55902;-37.980;-63.602;2024-03-02T08:23:45;3.15;;;1.20;;
59960;SDS011;55902;-37.980;-63.602;2024-03-02T08:26:12;2.22;;;1.10;;
59960;SDS011;55902;-37.980;-63.602;2024-03-02T08:28:39;2.63;;;1.10;;
59960;SDS011;55902;-37.980;-63.602;2024-03-02T08:31:06;4.32;;;1.35;;
59960;SDS011;55902;-37.980;-63.602;2024-03-02T08:33:34;2.00;;;1.30;;
59960;SDS011;55902;-37.980;-63.602;2024-03-02T08:36:01;2.90;;;1.20;;
59960;SDS011;55902;-37.980;-63.602;2024-03-02T08:38:28;2.35;;;1.10;;
59960;SDS011;55902;-37.980;-63.602;2024-03-02T08:40:55;4.32;;;1.10;;
59960;SDS011;55902;-37.980;-63.602;2024-03-02T08:43:22;2.95;;;1.20;;
59960;SDS011;55902;-37.980;-63.602;2024-03-02T08:45:50;4.50;;;1.30;;
59960;SDS011;55902;-37.980;-63.602;2024-03-02T08:48:17;1.80;;;1.10;;
59960;SDS011;55902;-37.980;-63.602;2024-03-02T08:50:45;1.73;;;1.20;;
59960;SDS011;55902;-37.980;-63.602;2024-03-02T08:53:12;3.78;;;1.10;;
59960;SDS011;55902;-37.980;-63.602;2024-03-02T08:55:45;3.20;;;1.30;;
59960;SDS011;55902;-37.980;-63.602;2024-03-02T08:58:15;3.40;;;1.60;;
59960;SDS011;55902;-37.980;-63.602;2024-03-02T09:00:42;3.20;;;1.33;;
59960;SDS011;55902;-37.980;-63.602;2024-03-02T09:03:09;3.95;;;1.30;;
59960;SDS011;55902;-37.980;-63.602;2024-03-02T09:05:36;2.88;;;1.38;;
59960;SDS011;55902;-37.980;-63.602;2024-03-02T09:08:03;1.98;;;1.30;;
59960;SDS011;55902;-37.980;-63.602;2024-03-02T09:10:30;2.72;;;1.20;;
59960;SDS011;55902;-37.980;-63.602;2024-03-02T09:12:58;2.78;;;1.20;;
59960;SDS011;55902;-37.980;-63.602;2024-03-02T09:15:25;4.78;;;1.40;;
59960;SDS011;55902;-37.980;-63.602;2024-03-02T09:17:52;3.55;;;1.30;;
59960;SDS011;55902;-37.980;-63.602;2024-03-02T09:23:53;3.03;;;1.35;;
59960;SDS011;55902;-37.980;-63.602;2024-03-02T09:26:20;3.33;;;1.50;;
59960;SDS011;55902;-37.980;-63.602;2024-03-02T09:28:48;3.03;;;1.60;;
59960;SDS011;55902;-37.980;-63.602;2024-03-02T09:31:15;2.80;;;1.40;;
59960;SDS011;55902;-37.980;-63.602;2024-03-02T09:33:42;4.10;;;1.40;;
59960;SDS011;55902;-37.980;-63.602;2024-03-02T09:36:19;4.70;;;1.52;;
59960;SDS011;55902;-37.980;-63.602;2024-03-02T09:38:47;2.72;;;1.30;;
59960;SDS011;55902;-37.980;-63.602;2024-03-02T09:41:14;3.83;;;1.50;;
59960;SDS011;55902;-37.980;-63.602;2024-03-02T09:43:42;4.03;;;1.50;;
59960;SDS011;55902;-37.980;-63.602;2024-03-02T09:46:09;3.65;;;1.70;;
59960;SDS011;55902;-37.980;-63.602;2024-03-02T09:48:37;2.88;;;1.38;;
59960;SDS011;55902;-37.980;-63.602;2024-03-02T09:51:04;6.57;;;1.80;;
59960;SDS011;55902;-37.980;-63.602;2024-03-02T09:53:32;3.63;;;1.55;;
59960;SDS011;55902;-37.980;-63.602;2024-03-02T09:56:00;3.70;;;1.40;;
59960;SDS011;55902;-37.980;-63.602;2024-03-02T09:58:27;4.68;;;1.60;;
59960;SDS011;55902;-37.980;-63.602;2024-03-02T10:00:54;4.65;;;1.77;;
59960;SDS011;55902;-37.980;-63.602;2024-03-02T10:03:22;5.75;;;1.67;;
59960;SDS011;55902;-37.980;-63.602;2024-03-02T10:05:52;2.78;;;1.50;;
59960;SDS011;55902;-37.980;-63.602;2024-03-02T10:08:19;3.47;;;1.48;;
59960;SDS011;55902;-37.980;-63.602;2024-03-02T10:10:46;4.22;;;1.67;;
59960;SDS011;55902;-37.980;-63.602;2024-03-02T10:13:13;7.68;;;1.80;;
59960;SDS011;55902;-37.980;-63.602;2024-03-02T10:15:41;5.80;;;1.67;;
59960;SDS011;55902;-37.980;-63.602;2024-03-02T10:18:12;6.05;;;1.60;;
59960;SDS011;55902;-37.980;-63.602;2024-03-02T10:20:40;4.25;;;1.50;;
59960;SDS011;55902;-37.980;-63.602;2024-03-02T10:23:11;3.28;;;1.40;;
59960;SDS011;55902;-37.980;-63.602;2024-03-02T10:25:40;3.58;;;1.55;;
59960;SDS011;55902;-37.980;-63.602;2024-03-02T10:28:07;5.72;;;1.88;;
59960;SDS011;55902;-37.980;-63.602;2024-03-02T10:30:34;5.05;;;1.60;;
59960;SDS011;55902;-37.980;-63.602;2024-03-02T10:33:02;3.85;;;1.70;;
59960;SDS011;55902;-37.980;-63.602;2024-03-02T10:35:31;5.60;;;1.60;;
59960;SDS011;55902;-37.980;-63.602;2024-03-02T10:38:03;4.85;;;1.80;;
59960;SDS011;55902;-37.980;-63.602;2024-03-02T10:40:32;3.58;;;1.45;;
59960;SDS011;55902;-37.980;-63.602;2024-03-02T10:42:59;4.88;;;1.60;;
59960;SDS011;55902;-37.980;-63.602;2024-03-02T10:45:31;4.65;;;1.98;;
59960;SDS011;55902;-37.980;-63.602;2024-03-02T10:47:58;3.88;;;1.90;;
59960;SDS011;55902;-37.980;-63.602;2024-03-02T10:50:27;6.40;;;1.80;;
59960;SDS011;55902;-37.980;-63.602;2024-03-02T10:52:54;8.30;;;1.80;;
59960;SDS011;55902;-37.980;-63.602;2024-03-02T10:55:21;4.78;;;1.70;;
59960;SDS011;55902;-37.980;-63.602;2024-03-02T10:58:02;5.72;;;1.83;;
59960;SDS011;55902;-37.980;-63.602;2024-03-02T11:28:37;5.43;;;1.70;;
59960;SDS011;55902;-37.980;-63.602;2024-03-02T11:31:05;4.07;;;1.40;;
59960;SDS011;55902;-37.980;-63.602;2024-03-02T11:33:35;9.23;;;2.00;;
59960;SDS011;55902;-37.980;-63.602;2024-03-02T11:40:06;5.95;;;1.67;;
59960;SDS011;55902;-37.980;-63.602;2024-03-02T11:42:36;7.60;;;1.55;;
59960;SDS011;55902;-37.980;-63.602;2024-03-02T11:45:04;4.10;;;1.60;;
59960;SDS011;55902;-37.980;-63.602;2024-03-02T11:47:34;7.30;;;1.60;;
59960;SDS011;55902;-37.980;-63.602;2024-03-02T11:50:02;5.53;;;1.50;;
59960;SDS011;55902;-37.980;-63.602;2024-03-02T11:52:32;7.93;;;1.80;;
59960;SDS011;55902;-37.980;-63.602;2024-03-02T11:55:00;5.47;;;1.50;;
59960;SDS011;55902;-37.980;-63.602;2024-03-02T11:57:29;4.38;;;1.30;;
59960;SDS011;55902;-37.980;-63.602;2024-03-02T11:59:57;5.93;;;1.30;;
59960;SDS011;55902;-37.980;-63.602;2024-03-02T12:02:24;8.35;;;1.30;;
59960;SDS011;55902;-37.980;-63.602;2024-03-02T12:04:51;3.97;;;1.30;;
59960;SDS011;55902;-37.980;-63.602;2024-03-02T12:07:19;7.68;;;1.13;;
59960;SDS011;55902;-37.980;-63.602;2024-03-02T12:09:47;7.82;;;1.38;;
59960;SDS011;55902;-37.980;-63.602;2024-03-02T12:12:15;5.10;;;1.00;;
59960;SDS011;55902;-37.980;-63.602;2024-03-02T12:14:50;3.95;;;0.98;;
59960;SDS011;55902;-37.980;-63.602;2024-03-02T12:17:19;4.05;;;1.05;;
59960;SDS011;55902;-37.980;-63.602;2024-03-02T12:19:46;10.57;;;1.35;;
59960;SDS011;55902;-37.980;-63.602;2024-03-02T12:22:14;10.68;;;1.35;;
59960;SDS011;55902;-37.980;-63.602;2024-03-02T12:24:41;6.03;;;1.00;;
59960;SDS011;55902;-37.980;-63.602;2024-03-02T12:27:12;4.43;;;1.00;;
59960;SDS011;55902;-37.980;-63.602;2024-03-02T12:29:40;4.18;;;1.20;;
59960;SDS011;55902;-37.980;-63.602;2024-03-02T12:32:07;4.13;;;1.38;;
59960;SDS011;55902;-37.980;-63.602;2024-03-02T12:34:34;5.95;;;0.90;;
59960;SDS011;55902;-37.980;-63.602;2024-03-02T12:37:03;10.73;;;1.35;;
59960;SDS011;55902;-37.980;-63.602;2024-03-02T12:39:31;6.15;;;1.13;;
59960;SDS011;55902;-37.980;-63.602;2024-03-02T12:41:58;3.90;;;1.00;;
59960;SDS011;55902;-37.980;-63.602;2024-03-02T12:44:25;6.50;;;1.00;;
59960;SDS011;55902;-37.980;-63.602;2024-03-02T12:46:52;7.28;;;1.35;;
59960;SDS011;55902;-37.980;-63.602;2024-03-02T12:49:21;8.20;;;1.23;;
59960;SDS011;55902;-37.980;-63.602;2024-03-02T12:51:48;5.13;;;1.08;;
59960;SDS011;55902;-37.980;-63.602;2024-03-02T12:54:21;6.20;;;1.40;;
59960;SDS011;55902;-37.980;-63.602;2024-03-02T12:56:50;4.85;;;1.10;;
59960;SDS011;55902;-37.980;-63.602;2024-03-02T12:59:20;5.60;;;1.05;;
59960;SDS011;55902;-37.980;-63.602;2024-03-02T13:01:52;6.22;;;0.82;;
59960;SDS011;55902;-37.980;-63.602;2024-03-02T13:04:23;6.22;;;1.00;;
59960;SDS011;55902;-37.980;-63.602;2024-03-02T13:06:51;7.15;;;0.90;;
59960;SDS011;55902;-37.980;-63.602;2024-03-02T13:09:19;5.80;;;0.73;;
59960;SDS011;55902;-37.980;-63.602;2024-03-02T13:11:46;3.13;;;0.80;;
59960;SDS011;55902;-37.980;-63.602;2024-03-02T13:14:13;1.75;;;0.70;;
59960;SDS011;55902;-37.980;-63.602;2024-03-02T13:16:41;3.42;;;0.90;;
59960;SDS011;55902;-37.980;-63.602;2024-03-02T13:19:08;3.83;;;0.80;;
59960;SDS011;55902;-37.980;-63.602;2024-03-02T13:21:40;5.35;;;1.50;;
59960;SDS011;55902;-37.980;-63.602;2024-03-02T13:24:07;3.40;;;0.70;;
59960;SDS011;55902;-37.980;-63.602;2024-03-02T13:26:34;4.15;;;0.80;;
59960;SDS011;55902;-37.980;-63.602;2024-03-02T13:29:01;3.17;;;0.60;;
59960;SDS011;55902;-37.980;-63.602;2024-03-02T13:31:28;3.75;;;0.73;;
59960;SDS011;55902;-37.980;-63.602;2024-03-02T13:33:55;8.82;;;0.85;;
59960;SDS011;55902;-37.980;-63.602;2024-03-02T13:36:22;4.45;;;0.70;;
59960;SDS011;55902;-37.980;-63.602;2024-03-02T13:38:49;3.38;;;0.77;;
59960;SDS011;55902;-37.980;-63.602;2024-03-02T13:41:16;3.00;;;0.70;;
59960;SDS011;55902;-37.980;-63.602;2024-03-02T13:43:43;3.17;;;0.63;;
59960;SDS011;55902;-37.980;-63.602;2024-03-02T13:46:11;5.70;;;0.70;;
59960;SDS011;55902;-37.980;-63.602;2024-03-02T13:48:38;5.45;;;1.00;;
59960;SDS011;55902;-37.980;-63.602;2024-03-02T13:51:05;3.55;;;0.70;;
59960;SDS011;55902;-37.980;-63.602;2024-03-02T13:53:32;2.47;;;0.60;;
59960;SDS011;55902;-37.980;-63.602;2024-03-02T13:56:00;5.65;;;0.80;;
59960;SDS011;55902;-37.980;-63.602;2024-03-02T13:58:28;7.65;;;0.70;;
59960;SDS011;55902;-37.980;-63.602;2024-03-02T14:00:55;4.60;;;0.70;;
59960;SDS011;55902;-37.980;-63.602;2024-03-02T14:03:22;6.43;;;1.17;;
59960;SDS011;55902;-37.980;-63.602;2024-03-02T14:05:49;5.32;;;0.65;;
59960;SDS011;55902;-37.980;-63.602;2024-03-02T14:08:20;5.38;;;0.80;;
59960;SDS011;55902;-37.980;-63.602;2024-03-02T14:10:47;3.85;;;0.60;;
59960;SDS011;55902;-37.980;-63.602;2024-03-02T14:13:14;5.28;;;0.80;;
59960;SDS011;55902;-37.980;-63.602;2024-03-02T14:15:41;8.18;;;1.00;;
59960;SDS011;55902;-37.980;-63.602;2024-03-02T14:18:09;4.90;;;0.80;;
59960;SDS011;55902;-37.980;-63.602;2024-03-02T14:20:36;4.70;;;0.60;;
59960;SDS011;55902;-37.980;-63.602;2024-03-02T14:23:03;2.95;;;0.82;;
59960;SDS011;55902;-37.980;-63.602;2024-03-02T14:25:30;8.55;;;1.25;;
59960;SDS011;55902;-37.980;-63.602;2024-03-02T14:27:59;1.80;;;0.50;;
59960;SDS011;55902;-37.980;-63.602;2024-03-02T14:30:26;5.25;;;0.60;;
59960;SDS011;55902;-37.980;-63.602;2024-03-02T14:32:53;4.93;;;0.80;;
59960;SDS011;55902;-37.980;-63.602;2024-03-02T14:35:20;2.20;;;0.50;;
59960;SDS011;55902;-37.980;-63.602;2024-03-02T14:37:48;4.40;;;0.60;;
59960;SDS011;55902;-37.980;-63.602;2024-03-02T14:40:15;4.13;;;0.55;;
59960;SDS011;55902;-37.980;-63.602;2024-03-02T14:42:42;2.95;;;0.60;;
59960;SDS011;55902;-37.980;-63.602;2024-03-02T14:45:12;3.22;;;0.50;;
59960;SDS011;55902;-37.980;-63.602;2024-03-02T14:47:40;2.28;;;0.50;;
59960;SDS011;55902;-37.980;-63.602;2024-03-02T14:50:07;4.05;;;0.70;;
59960;SDS011;55902;-37.980;-63.602;2024-03-02T14:52:35;2.08;;;0.50;;
59960;SDS011;55902;-37.980;-63.602;2024-03-02T14:55:02;4.30;;;0.57;;
59960;SDS011;55902;-37.980;-63.602;2024-03-02T14:57:30;3.20;;;0.70;;
59960;SDS011;55902;-37.980;-63.602;2024-03-02T14:59:56;2.38;;;0.60;;